createdAt,value
2018-02-18T00:00:19.415Z,1.60
2018-02-18T00:02:45.778Z,1.60
2018-02-18T00:05:12.145Z,1.60
2018-02-18T00:07:38.503Z,1.50
2018-02-18T00:10:04.869Z,1.40
2018-02-18T00:12:31.998Z,1.50
2018-02-18T00:14:59.960Z,1.50
2018-02-18T00:17:27.062Z,1.50
2018-02-18T00:19:53.434Z,1.50
2018-02-18T00:22:19.793Z,1.50
2018-02-18T00:24:46.189Z,1.40
2018-02-18T00:27:12.602Z,1.50
2018-02-18T00:29:38.972Z,1.50
2018-02-18T00:32:05.328Z,1.50
2018-02-18T00:34:31.700Z,1.50
2018-02-18T00:36:58.080Z,1.60
2018-02-18T00:39:25.186Z,1.70
2018-02-18T00:41:51.553Z,1.70
2018-02-18T00:44:18.691Z,1.60
2018-02-18T00:46:45.064Z,1.60
2018-02-18T00:49:11.485Z,1.60
2018-02-18T00:51:37.900Z,1.60
2018-02-18T00:54:04.991Z,1.60
2018-02-18T00:56:31.389Z,1.60
2018-02-18T00:58:57.754Z,1.60
2018-02-18T01:01:24.116Z,1.50
2018-02-18T01:03:50.509Z,1.60
2018-02-18T01:06:16.879Z,1.60
2018-02-18T01:08:43.241Z,1.60
2018-02-18T01:11:10.344Z,1.50
2018-02-18T01:13:36.711Z,1.50
2018-02-18T01:16:03.843Z,1.50
2018-02-18T01:18:30.188Z,1.50
2018-02-18T01:20:56.544Z,1.50
2018-02-18T01:23:22.923Z,1.60
2018-02-18T01:25:49.314Z,1.60
2018-02-18T01:28:15.693Z,1.60
2018-02-18T01:30:42.055Z,1.40
2018-02-18T01:33:09.153Z,1.30
2018-02-18T01:35:35.519Z,1.30
2018-02-18T01:38:01.939Z,1.20
2018-02-18T01:40:28.266Z,1.30
2018-02-18T01:42:54.663Z,1.30
2018-02-18T01:45:21.020Z,1.30
2018-02-18T01:47:47.391Z,1.40
2018-02-18T01:50:26.935Z,1.50
2018-02-18T01:52:54.043Z,1.60
2018-02-18T01:55:20.434Z,1.50
2018-02-18T01:57:46.811Z,1.50
2018-02-18T02:00:13.192Z,1.60
2018-02-18T02:02:39.551Z,1.60
2018-02-18T02:05:05.938Z,1.60
2018-02-18T02:07:33.050Z,1.50
2018-02-18T02:09:59.436Z,1.50
2018-02-18T02:12:25.799Z,1.50
2018-02-18T02:14:52.251Z,1.50
2018-02-18T02:17:18.625Z,1.40
2018-02-18T02:19:45.802Z,1.30
2018-02-18T02:22:12.162Z,1.30
2018-02-18T02:24:38.519Z,1.20
2018-02-18T02:27:05.624Z,1.20
2018-02-18T02:29:32.082Z,1.10
2018-02-18T02:31:58.451Z,1.20
2018-02-18T02:34:25.608Z,1.30
2018-02-18T02:36:51.979Z,1.30
2018-02-18T02:39:18.354Z,1.40
2018-02-18T02:41:45.467Z,1.40
2018-02-18T02:44:11.840Z,1.40
2018-02-18T02:46:38.966Z,1.40
2018-02-18T02:49:06.080Z,1.40
2018-02-18T02:51:32.439Z,1.40
2018-02-18T02:53:58.838Z,1.40
2018-02-18T02:56:25.224Z,1.50
2018-02-18T02:58:52.334Z,1.50
2018-02-18T03:01:18.712Z,1.40
2018-02-18T03:03:45.122Z,1.50
2018-02-18T03:06:11.491Z,1.40
2018-02-18T03:08:37.854Z,1.30
2018-02-18T03:11:04.256Z,1.20
2018-02-18T03:13:30.611Z,1.20
2018-02-18T03:15:56.984Z,1.10
2018-02-18T03:18:24.122Z,1.10
2018-02-18T03:20:50.511Z,1.10
2018-02-18T03:23:16.858Z,1.10
2018-02-18T03:25:43.216Z,1.10
2018-02-18T03:28:10.343Z,1.20
2018-02-18T03:30:36.735Z,1.20
2018-02-18T03:33:03.110Z,1.20
2018-02-18T03:35:29.503Z,1.20
2018-02-18T03:37:55.862Z,1.20
2018-02-18T03:40:22.228Z,1.20
2018-02-18T03:42:48.589Z,1.10
2018-02-18T03:45:14.948Z,1.20
2018-02-18T03:47:41.326Z,1.20
2018-02-18T03:50:08.453Z,1.20
2018-02-18T03:52:34.818Z,1.20
2018-02-18T03:55:01.952Z,1.30
2018-02-18T03:57:28.302Z,1.30
2018-02-18T03:59:55.394Z,1.30
2018-02-18T04:02:21.756Z,1.20
2018-02-18T04:04:48.125Z,1.20
2018-02-18T04:07:14.488Z,1.20
2018-02-18T04:09:40.843Z,1.20
2018-02-18T04:12:07.218Z,1.10
2018-02-18T04:14:34.324Z,1.10
2018-02-18T04:17:00.679Z,1.10
2018-02-18T04:19:27.818Z,1.00
2018-02-18T04:21:54.918Z,0.90
2018-02-18T04:24:21.271Z,0.90
2018-02-18T04:26:47.632Z,0.90
2018-02-18T04:29:13.993Z,0.90
2018-02-18T04:31:40.367Z,0.80
2018-02-18T04:34:08.241Z,0.80
2018-02-18T04:36:34.623Z,0.80
2018-02-18T04:39:00.988Z,1.00
2018-02-18T04:41:27.382Z,1.00
2018-02-18T04:43:53.764Z,1.10
2018-02-18T04:46:20.139Z,1.10
2018-02-18T04:48:46.518Z,1.20
2018-02-18T04:51:12.892Z,1.20
2018-02-18T04:53:40.023Z,1.40
2018-02-18T04:56:06.434Z,1.30
2018-02-18T04:58:32.796Z,1.40
2018-02-18T05:00:59.895Z,1.40
2018-02-18T05:03:26.313Z,1.40
2018-02-18T05:05:52.671Z,1.30
2018-02-18T05:08:19.033Z,1.30
2018-02-18T05:10:45.397Z,1.20
2018-02-18T05:13:11.750Z,1.20
2018-02-18T05:15:38.127Z,1.00
2018-02-18T05:18:05.968Z,0.90
2018-02-18T05:20:32.348Z,0.90
2018-02-18T05:22:59.462Z,1.00
2018-02-18T05:25:25.835Z,1.00
2018-02-18T05:27:52.199Z,1.00
2018-02-18T05:30:18.562Z,1.00
2018-02-18T05:32:44.928Z,1.00
2018-02-18T05:35:11.282Z,1.10
2018-02-18T05:37:37.655Z,1.20
2018-02-18T05:40:04.023Z,1.30
2018-02-18T05:42:30.410Z,1.30
2018-02-18T05:44:56.768Z,1.20
2018-02-18T05:47:23.903Z,1.10
2018-02-18T05:49:50.263Z,1.10
2018-02-18T05:52:17.373Z,1.00
2018-02-18T05:54:43.734Z,0.90
2018-02-18T05:57:10.849Z,0.50
2018-02-18T05:59:37.204Z,0.50
2018-02-18T06:02:04.315Z,0.70
2018-02-18T06:04:30.686Z,0.70
2018-02-18T06:06:57.853Z,0.60
2018-02-18T06:09:24.222Z,0.60
2018-02-18T06:11:50.576Z,0.60
2018-02-18T06:14:16.949Z,0.70
2018-02-18T06:16:43.303Z,0.60
2018-02-18T06:19:09.656Z,0.40
2018-02-18T06:21:36.023Z,0.40
2018-02-18T06:24:03.197Z,0.30
2018-02-18T06:26:29.578Z,0.30
2018-02-18T06:28:55.963Z,0.20
2018-02-18T06:31:22.336Z,0.20
2018-02-18T06:33:48.808Z,0.30
2018-02-18T06:36:15.166Z,0.30
2018-02-18T06:38:41.530Z,0.30
2018-02-18T06:41:07.923Z,0.20
2018-02-18T06:43:34.299Z,0.10
2018-02-18T06:46:00.671Z,0.10
2018-02-18T06:48:27.035Z,0.10
2018-02-18T06:50:53.514Z,0.10
2018-02-18T06:53:20.636Z,0.20
2018-02-18T06:55:46.995Z,0.20
2018-02-18T06:58:14.106Z,0.10
2018-02-18T07:00:41.270Z,0.10
2018-02-18T07:03:07.663Z,0.10
2018-02-18T07:05:34.058Z,0.20
2018-02-18T07:08:00.459Z,0.20
2018-02-18T07:10:26.949Z,0.30
2018-02-18T07:12:53.382Z,0.30
2018-02-18T07:15:19.742Z,0.10
2018-02-18T07:17:46.140Z,0.20
2018-02-18T07:20:12.486Z,0.10
2018-02-18T07:22:38.854Z,0.10
2018-02-18T07:25:05.228Z,0.10
2018-02-18T07:27:31.618Z,0.10
2018-02-18T07:29:58.004Z,0.20
2018-02-18T07:32:24.356Z,0.20
2018-02-18T07:34:50.743Z,0.30
2018-02-18T07:37:17.949Z,0.50
2018-02-18T07:39:44.319Z,0.50
2018-02-18T07:42:10.683Z,0.80
2018-02-18T07:44:37.063Z,1.10
2018-02-18T07:47:04.381Z,1.30
2018-02-18T07:49:30.743Z,1.60
2018-02-18T07:51:57.114Z,1.70
2018-02-18T07:54:23.511Z,1.90
2018-02-18T07:56:49.870Z,2.10
2018-02-18T07:59:16.992Z,2.20
2018-02-18T08:01:43.371Z,2.20
2018-02-18T08:04:09.742Z,2.20
2018-02-18T08:06:36.156Z,2.20
2018-02-18T08:09:02.530Z,2.50
2018-02-18T08:11:28.961Z,2.70
2018-02-18T08:13:56.864Z,2.70
2018-02-18T08:16:23.265Z,2.70
2018-02-18T08:18:50.447Z,2.80
2018-02-18T08:21:16.819Z,2.80
2018-02-18T08:23:43.212Z,3.00
2018-02-18T08:26:09.588Z,2.90
2018-02-18T08:28:35.973Z,2.70
2018-02-18T08:31:02.369Z,2.70
2018-02-18T08:33:28.809Z,2.80
2018-02-18T08:35:55.948Z,3.20
2018-02-18T08:38:23.121Z,3.30
2018-02-18T08:40:50.232Z,3.30
2018-02-18T08:43:16.652Z,3.30
2018-02-18T08:45:43.026Z,3.10
2018-02-18T08:48:10.159Z,3.10
2018-02-18T08:50:36.578Z,3.10
2018-02-18T08:53:02.984Z,3.10
2018-02-18T08:55:29.365Z,3.30
2018-02-18T08:57:55.732Z,3.30
2018-02-18T09:00:22.095Z,3.30
2018-02-18T09:02:48.462Z,3.40
2018-02-18T09:05:16.324Z,3.50
2018-02-18T09:07:42.708Z,3.50
2018-02-18T09:10:09.103Z,3.50
2018-02-18T09:12:35.479Z,3.40
2018-02-18T09:15:01.858Z,3.60
2018-02-18T09:17:29.028Z,3.90
2018-02-18T09:19:56.107Z,4.10
2018-02-18T09:22:22.510Z,4.10
2018-02-18T09:24:49.617Z,4.00
2018-02-18T09:27:15.999Z,4.00
2018-02-18T09:29:42.436Z,4.00
2018-02-18T09:32:08.815Z,4.10
2018-02-18T09:34:35.201Z,4.20
2018-02-18T09:37:01.558Z,4.20
2018-02-18T09:39:28.707Z,4.20
2018-02-18T09:41:55.063Z,4.10
2018-02-18T09:44:22.175Z,4.10
2018-02-18T09:46:48.560Z,4.10
2018-02-18T09:49:15.694Z,4.40
2018-02-18T09:51:42.137Z,4.40
2018-02-18T09:54:09.275Z,4.40
2018-02-18T09:56:36.388Z,4.40
2018-02-18T09:59:02.793Z,4.40
2018-02-18T10:01:29.900Z,4.80
2018-02-18T10:03:56.284Z,4.80
2018-02-18T10:06:22.681Z,5.00
2018-02-18T10:11:19.160Z,4.80
2018-02-18T10:13:45.560Z,5.00
2018-02-18T10:16:11.955Z,4.80
2018-02-18T10:18:38.326Z,5.00
2018-02-18T10:21:04.701Z,5.00
2018-02-18T10:23:31.123Z,5.00
2018-02-18T10:25:57.513Z,5.20
2018-02-18T10:28:23.912Z,5.20
2018-02-18T10:30:50.287Z,5.10
2018-02-18T10:33:16.756Z,5.40
2018-02-18T10:35:43.228Z,5.30
2018-02-18T10:38:09.623Z,5.10
2018-02-18T10:40:36.031Z,4.80
2018-02-18T10:43:03.186Z,4.50
2018-02-18T10:45:29.575Z,4.50
2018-02-18T10:47:55.947Z,4.80
2018-02-18T10:50:23.062Z,4.40
2018-02-18T10:52:49.454Z,4.40
2018-02-18T10:55:15.853Z,4.60
2018-02-18T10:57:42.955Z,4.60
2018-02-18T11:00:09.365Z,4.50
2018-02-18T11:02:35.739Z,4.80
2018-02-18T11:05:02.171Z,4.80
2018-02-18T11:07:28.579Z,4.70
2018-02-18T11:09:54.953Z,4.90
2018-02-18T11:12:21.350Z,5.00
2018-02-18T11:14:47.715Z,4.80
2018-02-18T11:17:14.907Z,4.80
2018-02-18T11:19:41.291Z,4.80
2018-02-18T11:22:07.676Z,4.80
2018-02-18T11:24:34.038Z,4.80
2018-02-18T11:27:00.389Z,4.70
2018-02-18T11:29:26.793Z,4.60
2018-02-18T11:31:53.208Z,4.50
2018-02-18T11:34:19.604Z,4.50
2018-02-18T11:36:46.843Z,4.40
2018-02-18T11:39:13.248Z,4.40
2018-02-18T11:41:39.696Z,4.20
2018-02-18T11:44:06.891Z,4.20
2018-02-18T11:46:33.329Z,4.20
2018-02-18T11:48:59.790Z,4.10
2018-02-18T11:51:26.211Z,4.00
2018-02-18T11:53:52.652Z,3.90
2018-02-18T11:56:19.079Z,3.70
2018-02-18T11:58:45.538Z,3.60
2018-02-18T12:01:12.709Z,3.80
2018-02-18T12:03:39.852Z,3.90
2018-02-18T12:06:06.253Z,3.90
2018-02-18T12:08:32.694Z,4.10
2018-02-18T12:10:59.115Z,4.00
2018-02-18T12:13:25.532Z,4.00
2018-02-18T12:15:51.930Z,4.00
2018-02-18T12:18:19.098Z,4.10
2018-02-18T12:20:45.702Z,4.20
2018-02-18T12:23:12.131Z,4.20
2018-02-18T12:25:38.499Z,4.40
2018-02-18T12:28:05.129Z,4.50
2018-02-18T12:30:31.510Z,4.50
2018-02-18T12:32:57.937Z,4.50
2018-02-18T12:35:24.361Z,4.40
2018-02-18T12:37:50.735Z,4.20
2018-02-18T12:40:17.946Z,4.00
2018-02-18T12:42:44.365Z,4.00
2018-02-18T12:45:10.752Z,3.80
2018-02-18T12:47:38.624Z,3.50
2018-02-18T12:50:05.822Z,3.60
2018-02-18T12:52:32.232Z,3.50
2018-02-18T12:54:58.619Z,3.50
2018-02-18T12:57:25.067Z,3.30
2018-02-18T12:59:52.227Z,3.20
2018-02-18T13:02:19.403Z,3.30
2018-02-18T13:04:45.810Z,3.20
2018-02-18T13:07:12.997Z,3.50
2018-02-18T13:09:39.420Z,3.50
2018-02-18T13:12:05.853Z,3.50
2018-02-18T13:14:33.100Z,3.60
2018-02-18T13:16:59.523Z,3.80
2018-02-18T13:19:25.957Z,4.00
2018-02-18T13:21:52.962Z,4.20
2018-02-18T13:24:19.471Z,4.30
2018-02-18T13:26:46.737Z,4.50
2018-02-18T13:29:13.138Z,4.60
2018-02-18T13:31:39.532Z,4.70
2018-02-18T13:34:06.666Z,4.60
2018-02-18T13:36:33.075Z,4.60
2018-02-18T13:38:59.473Z,4.30
2018-02-18T13:41:39.453Z,4.10
2018-02-18T13:44:05.873Z,4.30
2018-02-18T13:46:32.556Z,4.30
2018-02-18T13:48:59.750Z,4.20
2018-02-18T13:51:26.205Z,4.20
2018-02-18T13:53:52.607Z,4.30
2018-02-18T13:56:19.008Z,4.20
2018-02-18T13:58:46.183Z,4.20
2018-02-18T14:01:12.610Z,4.20
2018-02-18T14:03:39.093Z,4.20
2018-02-18T14:06:05.523Z,4.20
2018-02-18T14:08:31.971Z,4.10
2018-02-18T14:10:58.389Z,4.10
2018-02-18T14:13:24.851Z,4.00
2018-02-18T14:15:51.981Z,4.00
2018-02-18T14:18:18.446Z,4.00
2018-02-18T14:20:45.638Z,4.00
2018-02-18T14:23:12.096Z,4.00
2018-02-18T14:25:38.522Z,4.00
2018-02-18T14:28:04.962Z,4.00
2018-02-18T14:30:31.397Z,4.00
2018-02-18T14:32:57.818Z,4.00
2018-02-18T14:35:24.200Z,4.10
2018-02-18T14:37:51.316Z,4.10
2018-02-18T14:40:17.696Z,4.10
2018-02-18T14:42:56.319Z,4.10
2018-02-18T14:45:35.091Z,4.20
2018-02-18T14:48:13.734Z,4.20
2018-02-18T14:50:53.194Z,4.00
2018-02-18T14:53:32.040Z,4.00
2018-02-18T14:56:24.636Z,3.80
2018-02-18T14:58:51.776Z,3.60
2018-02-18T15:01:18.167Z,3.60
2018-02-18T15:03:44.523Z,3.60
2018-02-18T15:06:10.904Z,3.70
2018-02-18T15:08:38.064Z,3.90
2018-02-18T15:11:04.735Z,3.90
2018-02-18T15:13:31.142Z,3.90
2018-02-18T15:15:57.543Z,3.90
2018-02-18T15:18:24.661Z,3.90
2018-02-18T15:20:51.048Z,3.90
2018-02-18T15:23:17.414Z,3.70
2018-02-18T15:25:43.769Z,3.70
2018-02-18T15:28:10.133Z,3.80
2018-02-18T15:30:37.253Z,3.90
2018-02-18T15:33:03.709Z,3.80
2018-02-18T15:35:30.886Z,3.80
2018-02-18T15:37:57.260Z,3.80
2018-02-18T15:40:23.650Z,3.90
2018-02-18T15:42:50.079Z,3.90
2018-02-18T15:45:16.492Z,3.90
2018-02-18T15:47:43.672Z,3.70
2018-02-18T15:50:10.056Z,3.60
2018-02-18T15:52:37.206Z,3.70
2018-02-18T15:55:04.384Z,3.70
2018-02-18T15:57:31.537Z,3.70
2018-02-18T15:59:58.403Z,3.70
2018-02-18T16:02:24.822Z,3.50
2018-02-18T16:04:51.280Z,3.40
2018-02-18T16:07:17.719Z,3.50
2018-02-18T16:09:44.210Z,3.60
2018-02-18T16:12:10.637Z,3.60
2018-02-18T16:14:37.090Z,3.50
2018-02-18T16:17:03.535Z,3.30
2018-02-18T16:19:29.937Z,3.30
2018-02-18T16:21:56.364Z,3.20
2018-02-18T16:24:22.804Z,3.20
2018-02-18T16:26:49.172Z,3.10
2018-02-18T16:29:15.744Z,3.00
2018-02-18T16:31:42.885Z,3.20
2018-02-18T16:34:10.023Z,3.20
2018-02-18T16:36:36.409Z,3.20
2018-02-18T16:39:02.847Z,3.20
2018-02-18T16:41:29.228Z,3.10
2018-02-18T16:43:56.338Z,3.10
2018-02-18T16:46:22.754Z,3.10
2018-02-18T16:48:49.115Z,3.10
2018-02-18T16:51:15.491Z,3.10
2018-02-18T16:53:41.858Z,3.10
2018-02-18T16:56:08.272Z,3.00
2018-02-18T16:58:34.639Z,2.90
2018-02-18T17:01:01.003Z,2.80
2018-02-18T17:03:27.394Z,2.90
2018-02-18T17:05:53.816Z,2.70
2018-02-18T17:08:20.707Z,2.70
2018-02-18T17:10:47.112Z,2.70
2018-02-18T17:13:13.527Z,2.60
2018-02-18T17:15:39.996Z,2.60
2018-02-18T17:18:06.380Z,2.70
2018-02-18T17:20:33.665Z,2.70
2018-02-18T17:23:00.075Z,2.70
2018-02-18T17:25:26.473Z,2.80
2018-02-18T17:27:53.587Z,2.70
2018-02-18T17:30:19.949Z,2.70
2018-02-18T17:32:47.076Z,2.80
2018-02-18T17:35:14.298Z,2.80
2018-02-18T17:37:40.715Z,2.60
2018-02-18T17:40:07.145Z,2.70
2018-02-18T17:42:33.616Z,2.80
2018-02-18T17:45:00.839Z,2.80
2018-02-18T17:47:27.240Z,2.80
2018-02-18T17:49:54.392Z,2.60
2018-02-18T17:52:20.790Z,2.60
2018-02-18T17:54:47.187Z,2.60
2018-02-18T17:57:13.564Z,2.60
2018-02-18T17:59:40.035Z,2.70
2018-02-18T18:02:06.432Z,2.90
2018-02-18T18:04:32.976Z,2.70
2018-02-18T18:07:00.091Z,2.60
2018-02-18T18:09:26.513Z,2.50
2018-02-18T18:11:54.135Z,2.40
2018-02-18T18:14:21.265Z,2.40
2018-02-18T18:16:49.141Z,2.50
2018-02-18T18:19:16.313Z,2.50
2018-02-18T18:21:42.746Z,2.40
2018-02-18T18:24:10.305Z,2.40
2018-02-18T18:26:36.705Z,2.40
2018-02-18T18:29:03.112Z,2.40
2018-02-18T18:31:29.508Z,2.50
2018-02-18T18:33:55.880Z,2.40
2018-02-18T18:36:22.290Z,2.50
2018-02-18T18:38:48.704Z,2.40
2018-02-18T18:41:15.115Z,2.40
2018-02-18T18:43:41.573Z,2.30
2018-02-18T18:46:07.999Z,2.30
2018-02-18T18:48:34.408Z,2.40
2018-02-18T18:51:00.844Z,2.40
2018-02-18T18:53:27.240Z,2.50
2018-02-18T18:55:53.634Z,2.50
2018-02-18T18:58:20.029Z,2.40
2018-02-18T19:00:47.213Z,2.30
2018-02-18T19:03:13.592Z,2.30
2018-02-18T19:05:41.487Z,2.30
2018-02-18T19:08:08.625Z,2.30
2018-02-18T19:10:35.738Z,2.40
2018-02-18T19:13:02.148Z,2.40
2018-02-18T19:15:28.516Z,2.50
2018-02-18T19:17:54.876Z,2.60
2018-02-18T19:20:21.230Z,2.50
2018-02-18T19:22:47.632Z,2.50
2018-02-18T19:25:14.772Z,2.30
2018-02-18T19:27:42.099Z,2.30
2018-02-18T19:30:08.499Z,2.20
2018-02-18T19:32:34.865Z,2.20
2018-02-18T19:35:01.270Z,2.20
2018-02-18T19:37:27.639Z,2.20
2018-02-18T19:39:53.999Z,2.20
2018-02-18T19:42:21.110Z,2.10
2018-02-18T19:44:47.466Z,2.10
2018-02-18T19:47:13.810Z,2.30
2018-02-18T19:49:40.205Z,2.40
2018-02-18T19:52:06.594Z,2.50
2018-02-18T19:54:33.684Z,2.30
2018-02-18T19:57:00.078Z,2.30
2018-02-18T19:59:26.456Z,2.30
2018-02-18T20:01:52.823Z,2.40
2018-02-18T20:04:19.205Z,2.50
2018-02-18T20:06:45.567Z,2.50
2018-02-18T20:09:12.720Z,2.40
2018-02-18T20:11:39.087Z,2.40
2018-02-18T20:14:05.515Z,2.40
2018-02-18T20:16:31.861Z,2.40
2018-02-18T20:18:58.255Z,2.40
2018-02-18T20:21:25.352Z,2.20
2018-02-18T20:23:51.714Z,2.20
2018-02-18T20:26:18.094Z,2.00
2018-02-18T20:28:44.463Z,1.70
2018-02-18T20:31:10.855Z,1.80
2018-02-18T20:33:37.263Z,1.90
2018-02-18T20:36:04.389Z,2.10
2018-02-18T20:38:31.512Z,2.10
2018-02-18T20:40:57.923Z,2.10
2018-02-18T20:43:24.306Z,2.10
2018-02-18T20:45:50.740Z,2.00
2018-02-18T20:48:18.659Z,2.10
2018-02-18T20:50:45.012Z,2.10
2018-02-18T20:53:11.370Z,2.00
2018-02-18T20:55:37.769Z,1.80
2018-02-18T20:58:04.127Z,1.70
2018-02-18T21:00:30.493Z,1.40
2018-02-18T21:02:57.610Z,1.70
2018-02-18T21:05:23.988Z,1.60
2018-02-18T21:07:50.361Z,1.70
2018-02-18T21:10:16.709Z,1.60
2018-02-18T21:12:43.901Z,1.70
2018-02-18T21:15:10.288Z,1.70
2018-02-18T21:17:36.698Z,1.50
2018-02-18T21:20:03.091Z,1.40
2018-02-18T21:22:29.482Z,1.20
2018-02-18T21:24:55.850Z,1.00
2018-02-18T21:27:22.930Z,0.60
2018-02-18T21:29:49.296Z,0.50
2018-02-18T21:32:15.660Z,0.60
2018-02-18T21:34:42.088Z,0.80
2018-02-18T21:37:09.220Z,0.90
2018-02-18T21:39:36.319Z,0.80
2018-02-18T21:42:02.695Z,0.80
2018-02-18T21:44:29.057Z,0.70
2018-02-18T21:46:56.164Z,0.40
2018-02-18T21:49:22.522Z,0.40
2018-02-18T21:51:49.624Z,0.60
2018-02-18T21:54:16.020Z,0.60
2018-02-18T21:56:43.130Z,0.60
2018-02-18T21:59:09.503Z,0.60
2018-02-18T22:01:35.883Z,0.70
2018-02-18T22:04:02.296Z,0.80
2018-02-18T22:06:28.640Z,0.80
2018-02-18T22:08:55.014Z,0.70
2018-02-18T22:11:21.419Z,0.50
2018-02-18T22:13:47.791Z,0.50
2018-02-18T22:16:14.178Z,0.50
2018-02-18T22:18:41.296Z,0.30
2018-02-18T22:21:07.667Z,0.20
2018-02-18T22:23:35.013Z,-0.40
2018-02-18T22:26:02.139Z,-1.10
2018-02-18T22:28:28.498Z,-1.10
2018-02-18T22:30:56.333Z,-1.40
2018-02-18T22:33:22.756Z,-1.40
2018-02-18T22:35:49.119Z,-1.40
2018-02-18T22:38:15.530Z,-1.40
2018-02-18T22:40:41.884Z,-1.60
2018-02-18T22:43:08.261Z,-1.80
2018-02-18T22:45:34.624Z,-1.90
2018-02-18T22:48:01.003Z,-1.80
2018-02-18T22:50:28.191Z,-1.80
2018-02-18T22:52:54.602Z,-1.80
2018-02-18T22:55:20.986Z,-1.70
2018-02-18T22:57:47.350Z,-1.80
2018-02-18T23:00:16.360Z,-1.60
2018-02-18T23:02:42.726Z,-1.60
2018-02-18T23:05:15.207Z,-1.70
2018-02-18T23:07:41.566Z,-1.80
2018-02-18T23:10:09.406Z,-2.30
2018-02-18T23:12:35.842Z,-2.30
2018-02-18T23:15:02.257Z,-2.30
2018-02-18T23:17:28.636Z,-2.40
2018-02-18T23:19:55.763Z,-2.50
2018-02-18T23:22:23.652Z,-2.50
2018-02-18T23:24:50.764Z,-2.30
2018-02-18T23:27:17.128Z,-2.30
2018-02-18T23:29:43.521Z,-2.20
2018-02-18T23:32:09.904Z,-2.20
2018-02-18T23:34:36.997Z,-2.70
2018-02-18T23:37:03.363Z,-2.70
2018-02-18T23:39:29.747Z,-2.90
2018-02-18T23:41:56.118Z,-3.20
2018-02-18T23:44:22.468Z,-3.20
2018-02-18T23:46:49.575Z,-3.00
2018-02-18T23:49:15.947Z,-3.10
2018-02-18T23:51:42.291Z,-2.90
2018-02-18T23:54:09.382Z,-3.20
2018-02-18T23:56:35.759Z,-3.10
2018-02-18T23:59:02.901Z,-2.80
